sensor_id;sensor_type;location;lat;lon;timestamp;P1;durP1;ratioP1;P2;durP2;ratioP2
70122;SDS011;57489;37.404;24.920;2022-08-21T00:03:37;13.13;;;4.60;;
70122;SDS011;57489;37.404;24.920;2022-08-21T00:08:37;9.63;;;5.10;;
70122;SDS011;57489;37.404;24.920;2022-08-21T00:13:38;9.90;;;5.07;;
70122;SDS011;57489;37.404;24.920;2022-08-21T00:18:40;9.40;;;5.20;;
70122;SDS011;57489;37.404;24.920;2022-08-21T00:23:41;8.27;;;5.27;;
70122;SDS011;57489;37.404;24.920;2022-08-21T00:28:41;8.23;;;5.00;;
70122;SDS011;57489;37.404;24.920;2022-08-21T00:33:42;7.63;;;4.80;;
70122;SDS011;57489;37.404;24.920;2022-08-21T00:38:43;10.57;;;5.45;;
70122;SDS011;57489;37.404;24.920;2022-08-21T00:43:44;7.90;;;4.73;;
70122;SDS011;57489;37.404;24.920;2022-08-21T00:48:45;7.65;;;4.65;;
70122;SDS011;57489;37.404;24.920;2022-08-21T00:53:45;10.77;;;4.53;;
70122;SDS011;57489;37.404;24.920;2022-08-21T00:58:46;7.10;;;4.47;;
70122;SDS011;57489;37.404;24.920;2022-08-21T01:03:47;7.70;;;3.92;;
70122;SDS011;57489;37.404;24.920;2022-08-21T01:08:48;6.68;;;3.97;;
70122;SDS011;57489;37.404;24.920;2022-08-21T01:13:49;8.13;;;3.97;;
70122;SDS011;57489;37.404;24.920;2022-08-21T01:18:50;10.70;;;3.97;;
70122;SDS011;57489;37.404;24.920;2022-08-21T01:23:52;9.40;;;4.20;;
70122;SDS011;57489;37.404;24.920;2022-08-21T01:29:00;8.73;;;3.40;;
70122;SDS011;57489;37.404;24.920;2022-08-21T01:34:21;9.93;;;4.10;;
70122;SDS011;57489;37.404;24.920;2022-08-21T01:39:22;11.10;;;4.23;;
70122;SDS011;57489;37.404;24.920;2022-08-21T01:44:23;7.93;;;3.47;;
70122;SDS011;57489;37.404;24.920;2022-08-21T01:49:24;9.52;;;4.97;;
70122;SDS011;57489;37.404;24.920;2022-08-21T01:54:25;7.40;;;3.83;;
70122;SDS011;57489;37.404;24.920;2022-08-21T01:59:26;10.68;;;4.43;;
70122;SDS011;57489;37.404;24.920;2022-08-21T02:04:27;7.47;;;4.13;;
70122;SDS011;57489;37.404;24.920;2022-08-21T02:09:28;8.67;;;4.00;;
70122;SDS011;57489;37.404;24.920;2022-08-21T02:14:28;8.90;;;4.27;;
70122;SDS011;57489;37.404;24.920;2022-08-21T02:19:29;8.47;;;4.00;;
70122;SDS011;57489;37.404;24.920;2022-08-21T02:24:29;9.00;;;4.10;;
70122;SDS011;57489;37.404;24.920;2022-08-21T02:29:30;6.90;;;3.53;;
70122;SDS011;57489;37.404;24.920;2022-08-21T02:34:30;7.73;;;3.90;;
70122;SDS011;57489;37.404;24.920;2022-08-21T02:39:31;8.20;;;3.73;;
70122;SDS011;57489;37.404;24.920;2022-08-21T02:44:31;11.60;;;4.43;;
70122;SDS011;57489;37.404;24.920;2022-08-21T02:49:32;8.40;;;4.33;;
70122;SDS011;57489;37.404;24.920;2022-08-21T02:54:32;7.23;;;3.93;;
70122;SDS011;57489;37.404;24.920;2022-08-21T02:59:33;6.50;;;4.13;;
70122;SDS011;57489;37.404;24.920;2022-08-21T03:04:33;8.70;;;3.57;;
70122;SDS011;57489;37.404;24.920;2022-08-21T03:09:34;7.93;;;4.23;;
70122;SDS011;57489;37.404;24.920;2022-08-21T03:14:34;6.65;;;3.80;;
70122;SDS011;57489;37.404;24.920;2022-08-21T03:19:35;8.43;;;3.93;;
70122;SDS011;57489;37.404;24.920;2022-08-21T03:24:35;7.37;;;4.03;;
70122;SDS011;57489;37.404;24.920;2022-08-21T03:29:36;8.87;;;4.27;;
70122;SDS011;57489;37.404;24.920;2022-08-21T03:34:37;8.10;;;4.40;;
70122;SDS011;57489;37.404;24.920;2022-08-21T03:39:38;7.03;;;4.50;;
70122;SDS011;57489;37.404;24.920;2022-08-21T03:44:39;7.70;;;3.80;;
70122;SDS011;57489;37.404;24.920;2022-08-21T03:49:39;8.37;;;3.80;;
70122;SDS011;57489;37.404;24.920;2022-08-21T03:54:40;7.85;;;4.13;;
70122;SDS011;57489;37.404;24.920;2022-08-21T03:59:41;7.40;;;3.97;;
70122;SDS011;57489;37.404;24.920;2022-08-21T04:04:41;6.67;;;3.70;;
70122;SDS011;57489;37.404;24.920;2022-08-21T04:09:42;6.70;;;4.20;;
70122;SDS011;57489;37.404;24.920;2022-08-21T04:14:42;7.75;;;3.83;;
70122;SDS011;57489;37.404;24.920;2022-08-21T04:19:43;8.40;;;4.03;;
70122;SDS011;57489;37.404;24.920;2022-08-21T04:24:43;6.23;;;3.60;;
70122;SDS011;57489;37.404;24.920;2022-08-21T04:29:44;6.23;;;3.63;;
70122;SDS011;57489;37.404;24.920;2022-08-21T04:34:44;7.07;;;3.43;;
70122;SDS011;57489;37.404;24.920;2022-08-21T04:39:45;7.77;;;3.60;;
70122;SDS011;57489;37.404;24.920;2022-08-21T04:44:47;7.00;;;3.50;;
70122;SDS011;57489;37.404;24.920;2022-08-21T04:49:47;6.70;;;3.77;;
70122;SDS011;57489;37.404;24.920;2022-08-21T04:54:48;7.57;;;3.88;;
70122;SDS011;57489;37.404;24.920;2022-08-21T04:59:50;11.07;;;4.43;;
70122;SDS011;57489;37.404;24.920;2022-08-21T05:04:51;11.30;;;4.43;;
70122;SDS011;57489;37.404;24.920;2022-08-21T05:09:54;8.82;;;4.15;;
70122;SDS011;57489;37.404;24.920;2022-08-21T05:14:55;8.43;;;3.80;;
70122;SDS011;57489;37.404;24.920;2022-08-21T05:19:55;8.07;;;4.00;;
70122;SDS011;57489;37.404;24.920;2022-08-21T05:24:56;8.80;;;5.10;;
70122;SDS011;57489;37.404;24.920;2022-08-21T05:29:57;8.23;;;4.45;;
70122;SDS011;57489;37.404;24.920;2022-08-21T05:34:58;9.17;;;4.27;;
70122;SDS011;57489;37.404;24.920;2022-08-21T05:39:59;6.22;;;3.70;;
70122;SDS011;57489;37.404;24.920;2022-08-21T05:45:00;8.75;;;4.80;;
70122;SDS011;57489;37.404;24.920;2022-08-21T05:50:01;9.97;;;4.57;;
70122;SDS011;57489;37.404;24.920;2022-08-21T05:55:02;8.75;;;3.75;;
70122;SDS011;57489;37.404;24.920;2022-08-21T06:00:04;7.17;;;4.00;;
70122;SDS011;57489;37.404;24.920;2022-08-21T06:05:05;7.22;;;3.97;;
70122;SDS011;57489;37.404;24.920;2022-08-21T06:10:06;9.00;;;4.40;;
70122;SDS011;57489;37.404;24.920;2022-08-21T06:15:07;8.40;;;3.93;;
70122;SDS011;57489;37.404;24.920;2022-08-21T06:20:08;9.13;;;4.17;;
70122;SDS011;57489;37.404;24.920;2022-08-21T06:25:09;9.98;;;4.45;;
70122;SDS011;57489;37.404;24.920;2022-08-21T06:30:10;10.97;;;4.40;;
70122;SDS011;57489;37.404;24.920;2022-08-21T06:35:11;8.15;;;4.40;;
70122;SDS011;57489;37.404;24.920;2022-08-21T06:40:11;8.13;;;4.23;;
70122;SDS011;57489;37.404;24.920;2022-08-21T06:45:12;9.32;;;4.03;;
70122;SDS011;57489;37.404;24.920;2022-08-21T06:50:13;10.00;;;3.93;;
70122;SDS011;57489;37.404;24.920;2022-08-21T06:55:13;11.27;;;4.33;;
70122;SDS011;57489;37.404;24.920;2022-08-21T07:00:14;8.50;;;4.57;;
70122;SDS011;57489;37.404;24.920;2022-08-21T07:05:14;8.52;;;4.45;;
70122;SDS011;57489;37.404;24.920;2022-08-21T07:10:15;8.33;;;4.57;;
70122;SDS011;57489;37.404;24.920;2022-08-21T07:15:16;9.43;;;4.40;;
70122;SDS011;57489;37.404;24.920;2022-08-21T07:20:17;9.57;;;4.68;;
70122;SDS011;57489;37.404;24.920;2022-08-21T07:25:17;9.90;;;4.27;;
70122;SDS011;57489;37.404;24.920;2022-08-21T07:30:18;10.83;;;4.63;;
70122;SDS011;57489;37.404;24.920;2022-08-21T07:35:19;9.30;;;4.83;;
70122;SDS011;57489;37.404;24.920;2022-08-21T07:40:20;11.38;;;5.95;;
70122;SDS011;57489;37.404;24.920;2022-08-21T07:45:22;7.65;;;4.18;;
70122;SDS011;57489;37.404;24.920;2022-08-21T07:50:23;9.77;;;5.07;;
70122;SDS011;57489;37.404;24.920;2022-08-21T07:55:24;11.30;;;4.70;;
70122;SDS011;57489;37.404;24.920;2022-08-21T08:00:25;10.87;;;6.20;;
70122;SDS011;57489;37.404;24.920;2022-08-21T08:05:27;7.63;;;4.40;;
70122;SDS011;57489;37.404;24.920;2022-08-21T08:10:29;10.52;;;4.93;;
70122;SDS011;57489;37.404;24.920;2022-08-21T08:15:29;11.20;;;5.37;;
70122;SDS011;57489;37.404;24.920;2022-08-21T08:20:30;9.67;;;5.50;;
70122;SDS011;57489;37.404;24.920;2022-08-21T08:25:30;9.02;;;5.85;;
70122;SDS011;57489;37.404;24.920;2022-08-21T08:30:31;9.23;;;5.10;;
70122;SDS011;57489;37.404;24.920;2022-08-21T08:35:32;11.37;;;5.33;;
70122;SDS011;57489;37.404;24.920;2022-08-21T08:40:44;10.00;;;5.40;;
70122;SDS011;57489;37.404;24.920;2022-08-21T08:46:05;8.45;;;4.80;;
70122;SDS011;57489;37.404;24.920;2022-08-21T08:51:19;48.30;;;13.75;;
70122;SDS011;57489;37.404;24.920;2022-08-21T08:56:28;41.53;;;12.37;;
70122;SDS011;57489;37.404;24.920;2022-08-21T09:01:31;26.63;;;8.60;;
70122;SDS011;57489;37.404;24.920;2022-08-21T09:06:42;21.00;;;7.30;;
70122;SDS011;57489;37.404;24.920;2022-08-21T09:12:04;14.88;;;6.03;;
70122;SDS011;57489;37.404;24.920;2022-08-21T09:22:46;9.20;;;4.83;;
70122;SDS011;57489;37.404;24.920;2022-08-21T09:27:58;7.97;;;5.00;;
70122;SDS011;57489;37.404;24.920;2022-08-21T09:32:59;9.50;;;5.23;;
70122;SDS011;57489;37.404;24.920;2022-08-21T09:38:00;8.13;;;5.60;;
70122;SDS011;57489;37.404;24.920;2022-08-21T09:43:04;10.07;;;4.68;;
70122;SDS011;57489;37.404;24.920;2022-08-21T09:48:11;10.10;;;4.90;;
70122;SDS011;57489;37.404;24.920;2022-08-21T09:53:17;8.47;;;5.00;;
70122;SDS011;57489;37.404;24.920;2022-08-21T09:58:30;9.77;;;4.65;;
70122;SDS011;57489;37.404;24.920;2022-08-21T10:03:33;7.20;;;4.38;;
70122;SDS011;57489;37.404;24.920;2022-08-21T10:08:34;7.37;;;4.67;;
70122;SDS011;57489;37.404;24.920;2022-08-21T10:13:42;8.18;;;4.50;;
70122;SDS011;57489;37.404;24.920;2022-08-21T10:24:21;7.63;;;4.00;;
70122;SDS011;57489;37.404;24.920;2022-08-21T10:40:24;7.83;;;4.10;;
70122;SDS011;57489;37.404;24.920;2022-08-21T10:50:48;7.40;;;4.80;;
70122;SDS011;57489;37.404;24.920;2022-08-21T10:56:00;10.50;;;5.43;;
70122;SDS011;57489;37.404;24.920;2022-08-21T11:01:17;8.20;;;5.30;;
70122;SDS011;57489;37.404;24.920;2022-08-21T11:06:24;8.43;;;5.10;;
70122;SDS011;57489;37.404;24.920;2022-08-21T11:11:29;9.77;;;5.20;;
70122;SDS011;57489;37.404;24.920;2022-08-21T11:16:43;9.03;;;5.03;;
70122;SDS011;57489;37.404;24.920;2022-08-21T11:21:52;8.93;;;5.35;;
70122;SDS011;57489;37.404;24.920;2022-08-21T11:27:03;8.30;;;4.68;;
70122;SDS011;57489;37.404;24.920;2022-08-21T11:42:50;8.73;;;4.87;;
70122;SDS011;57489;37.404;24.920;2022-08-21T11:48:27;7.93;;;5.10;;
70122;SDS011;57489;37.404;24.920;2022-08-21T11:53:39;9.83;;;5.30;;
70122;SDS011;57489;37.404;24.920;2022-08-21T11:58:56;8.80;;;5.23;;
70122;SDS011;57489;37.404;24.920;2022-08-21T12:04:10;11.20;;;5.28;;
70122;SDS011;57489;37.404;24.920;2022-08-21T12:09:34;9.63;;;4.82;;
70122;SDS011;57489;37.404;24.920;2022-08-21T12:14:37;12.27;;;4.93;;
70122;SDS011;57489;37.404;24.920;2022-08-21T12:19:40;10.05;;;5.10;;
70122;SDS011;57489;37.404;24.920;2022-08-21T12:24:42;12.33;;;5.37;;
70122;SDS011;57489;37.404;24.920;2022-08-21T12:29:45;9.80;;;5.63;;
70122;SDS011;57489;37.404;24.920;2022-08-21T12:40:11;9.60;;;5.13;;
70122;SDS011;57489;37.404;24.920;2022-08-21T12:56:01;10.87;;;6.03;;
70122;SDS011;57489;37.404;24.920;2022-08-21T13:01:14;9.38;;;5.38;;
70122;SDS011;57489;37.404;24.920;2022-08-21T13:06:29;9.88;;;6.45;;
70122;SDS011;57489;37.404;24.920;2022-08-21T13:11:37;11.13;;;6.73;;
70122;SDS011;57489;37.404;24.920;2022-08-21T13:16:39;9.60;;;6.53;;
70122;SDS011;57489;37.404;24.920;2022-08-21T13:21:40;12.20;;;7.57;;
70122;SDS011;57489;37.404;24.920;2022-08-21T13:26:43;14.93;;;8.30;;
70122;SDS011;57489;37.404;24.920;2022-08-21T13:31:51;11.77;;;7.63;;
70122;SDS011;57489;37.404;24.920;2022-08-21T13:36:56;11.40;;;7.10;;
70122;SDS011;57489;37.404;24.920;2022-08-21T13:41:59;11.55;;;8.23;;
70122;SDS011;57489;37.404;24.920;2022-08-21T13:47:02;14.52;;;9.10;;
70122;SDS011;57489;37.404;24.920;2022-08-21T13:52:05;13.83;;;8.40;;
70122;SDS011;57489;37.404;24.920;2022-08-21T13:57:18;16.97;;;8.53;;
70122;SDS011;57489;37.404;24.920;2022-08-21T14:02:25;14.38;;;7.85;;
70122;SDS011;57489;37.404;24.920;2022-08-21T14:07:27;12.63;;;7.63;;
70122;SDS011;57489;37.404;24.920;2022-08-21T14:12:53;12.18;;;8.35;;
70122;SDS011;57489;37.404;24.920;2022-08-21T14:18:18;12.40;;;7.82;;
70122;SDS011;57489;37.404;24.920;2022-08-21T14:23:25;11.60;;;7.53;;
70122;SDS011;57489;37.404;24.920;2022-08-21T14:28:28;11.88;;;8.10;;
70122;SDS011;57489;37.404;24.920;2022-08-21T14:33:31;11.02;;;7.00;;
70122;SDS011;57489;37.404;24.920;2022-08-21T14:38:34;15.53;;;7.40;;
70122;SDS011;57489;37.404;24.920;2022-08-21T14:43:36;13.95;;;7.03;;
70122;SDS011;57489;37.404;24.920;2022-08-21T14:48:36;14.00;;;7.07;;
70122;SDS011;57489;37.404;24.920;2022-08-21T14:53:39;11.93;;;7.57;;
70122;SDS011;57489;37.404;24.920;2022-08-21T14:58:40;12.67;;;6.67;;
70122;SDS011;57489;37.404;24.920;2022-08-21T15:03:42;13.00;;;7.20;;
70122;SDS011;57489;37.404;24.920;2022-08-21T15:08:43;13.37;;;7.20;;
70122;SDS011;57489;37.404;24.920;2022-08-21T15:13:43;12.48;;;7.38;;
70122;SDS011;57489;37.404;24.920;2022-08-21T15:18:44;9.83;;;6.60;;
70122;SDS011;57489;37.404;24.920;2022-08-21T15:23:45;12.13;;;6.87;;
70122;SDS011;57489;37.404;24.920;2022-08-21T15:28:45;13.30;;;7.93;;
70122;SDS011;57489;37.404;24.920;2022-08-21T15:33:46;12.68;;;6.32;;
70122;SDS011;57489;37.404;24.920;2022-08-21T15:38:46;11.80;;;7.27;;
70122;SDS011;57489;37.404;24.920;2022-08-21T15:43:48;12.13;;;6.87;;
70122;SDS011;57489;37.404;24.920;2022-08-21T15:48:52;10.23;;;6.33;;
70122;SDS011;57489;37.404;24.920;2022-08-21T15:53:52;10.63;;;6.20;;
70122;SDS011;57489;37.404;24.920;2022-08-21T15:58:57;13.40;;;6.70;;
70122;SDS011;57489;37.404;24.920;2022-08-21T16:04:04;33.07;;;11.63;;
70122;SDS011;57489;37.404;24.920;2022-08-21T16:09:06;15.27;;;7.20;;
70122;SDS011;57489;37.404;24.920;2022-08-21T16:14:06;12.40;;;6.50;;
70122;SDS011;57489;37.404;24.920;2022-08-21T16:19:07;10.63;;;6.20;;
70122;SDS011;57489;37.404;24.920;2022-08-21T16:24:09;13.73;;;6.68;;
70122;SDS011;57489;37.404;24.920;2022-08-21T16:29:10;10.90;;;6.87;;
70122;SDS011;57489;37.404;24.920;2022-08-21T16:34:12;10.93;;;6.72;;
70122;SDS011;57489;37.404;24.920;2022-08-21T16:39:17;11.40;;;6.45;;
70122;SDS011;57489;37.404;24.920;2022-08-21T16:44:18;10.20;;;5.77;;
70122;SDS011;57489;37.404;24.920;2022-08-21T16:49:21;11.17;;;6.40;;
70122;SDS011;57489;37.404;24.920;2022-08-21T16:54:21;12.32;;;6.40;;
70122;SDS011;57489;37.404;24.920;2022-08-21T16:59:22;11.87;;;6.53;;
70122;SDS011;57489;37.404;24.920;2022-08-21T17:04:23;12.33;;;6.60;;
70122;SDS011;57489;37.404;24.920;2022-08-21T17:09:23;10.47;;;6.80;;
70122;SDS011;57489;37.404;24.920;2022-08-21T17:14:23;12.33;;;7.20;;
70122;SDS011;57489;37.404;24.920;2022-08-21T17:19:24;13.63;;;7.30;;
70122;SDS011;57489;37.404;24.920;2022-08-21T17:24:24;10.40;;;6.40;;
70122;SDS011;57489;37.404;24.920;2022-08-21T17:29:29;11.27;;;6.40;;
70122;SDS011;57489;37.404;24.920;2022-08-21T17:34:32;11.83;;;7.10;;
70122;SDS011;57489;37.404;24.920;2022-08-21T17:39:33;12.80;;;5.93;;
70122;SDS011;57489;37.404;24.920;2022-08-21T17:44:35;11.45;;;6.40;;
70122;SDS011;57489;37.404;24.920;2022-08-21T17:49:37;11.07;;;6.80;;
70122;SDS011;57489;37.404;24.920;2022-08-21T17:54:38;10.70;;;7.33;;
70122;SDS011;57489;37.404;24.920;2022-08-21T17:59:38;10.83;;;7.20;;
70122;SDS011;57489;37.404;24.920;2022-08-21T18:04:39;12.10;;;7.17;;
70122;SDS011;57489;37.404;24.920;2022-08-21T18:09:39;13.13;;;7.63;;
70122;SDS011;57489;37.404;24.920;2022-08-21T18:14:40;14.60;;;8.10;;
70122;SDS011;57489;37.404;24.920;2022-08-21T18:19:41;11.95;;;6.40;;
70122;SDS011;57489;37.404;24.920;2022-08-21T18:24:41;9.60;;;6.57;;
70122;SDS011;57489;37.404;24.920;2022-08-21T18:29:42;11.53;;;7.63;;
70122;SDS011;57489;37.404;24.920;2022-08-21T18:34:42;11.33;;;6.97;;
70122;SDS011;57489;37.404;24.920;2022-08-21T18:39:43;11.03;;;7.70;;
70122;SDS011;57489;37.404;24.920;2022-08-21T18:44:44;13.15;;;8.13;;
70122;SDS011;57489;37.404;24.920;2022-08-21T18:49:46;13.03;;;8.30;;
70122;SDS011;57489;37.404;24.920;2022-08-21T18:54:47;16.53;;;8.60;;
70122;SDS011;57489;37.404;24.920;2022-08-21T18:59:48;15.43;;;9.10;;
70122;SDS011;57489;37.404;24.920;2022-08-21T19:04:48;15.37;;;10.00;;
70122;SDS011;57489;37.404;24.920;2022-08-21T19:09:48;16.37;;;9.23;;
70122;SDS011;57489;37.404;24.920;2022-08-21T19:14:49;13.83;;;8.57;;
70122;SDS011;57489;37.404;24.920;2022-08-21T19:19:50;14.90;;;8.00;;
70122;SDS011;57489;37.404;24.920;2022-08-21T19:24:51;13.95;;;8.07;;
70122;SDS011;57489;37.404;24.920;2022-08-21T19:29:51;10.67;;;7.70;;
70122;SDS011;57489;37.404;24.920;2022-08-21T19:34:52;12.07;;;7.07;;
70122;SDS011;57489;37.404;24.920;2022-08-21T19:39:52;12.80;;;7.38;;
70122;SDS011;57489;37.404;24.920;2022-08-21T19:44:53;12.07;;;7.47;;
70122;SDS011;57489;37.404;24.920;2022-08-21T19:49:55;12.80;;;7.03;;
70122;SDS011;57489;37.404;24.920;2022-08-21T19:54:57;12.73;;;7.13;;
70122;SDS011;57489;37.404;24.920;2022-08-21T19:59:58;11.00;;;6.03;;
70122;SDS011;57489;37.404;24.920;2022-08-21T20:04:58;12.93;;;6.53;;
70122;SDS011;57489;37.404;24.920;2022-08-21T20:09:59;10.43;;;6.43;;
70122;SDS011;57489;37.404;24.920;2022-08-21T20:15:00;14.33;;;7.07;;
70122;SDS011;57489;37.404;24.920;2022-08-21T20:20:00;10.30;;;6.05;;
70122;SDS011;57489;37.404;24.920;2022-08-21T20:25:01;10.17;;;6.47;;
70122;SDS011;57489;37.404;24.920;2022-08-21T20:30:03;11.77;;;6.00;;
70122;SDS011;57489;37.404;24.920;2022-08-21T20:35:06;14.90;;;6.67;;
70122;SDS011;57489;37.404;24.920;2022-08-21T20:40:08;12.45;;;6.57;;
70122;SDS011;57489;37.404;24.920;2022-08-21T20:45:11;11.45;;;6.03;;
70122;SDS011;57489;37.404;24.920;2022-08-21T20:50:21;9.20;;;5.43;;
70122;SDS011;57489;37.404;24.920;2022-08-21T20:55:25;11.07;;;6.63;;
70122;SDS011;57489;37.404;24.920;2022-08-21T21:00:28;10.85;;;6.82;;
70122;SDS011;57489;37.404;24.920;2022-08-21T21:16:05;10.52;;;6.25;;
70122;SDS011;57489;37.404;24.920;2022-08-21T21:26:37;14.83;;;6.80;;
70122;SDS011;57489;37.404;24.920;2022-08-21T21:31:44;12.80;;;8.00;;
70122;SDS011;57489;37.404;24.920;2022-08-21T21:58:02;9.47;;;6.93;;
70122;SDS011;57489;37.404;24.920;2022-08-21T22:03:21;10.98;;;6.90;;
70122;SDS011;57489;37.404;24.920;2022-08-21T22:14:09;10.67;;;6.47;;
70122;SDS011;57489;37.404;24.920;2022-08-21T22:19:17;10.37;;;6.47;;
70122;SDS011;57489;37.404;24.920;2022-08-21T22:24:29;9.68;;;6.32;;
70122;SDS011;57489;37.404;24.920;2022-08-21T22:29:42;9.50;;;5.70;;
70122;SDS011;57489;37.404;24.920;2022-08-21T22:34:58;9.13;;;5.47;;
70122;SDS011;57489;37.404;24.920;2022-08-21T22:40:26;9.95;;;5.68;;
70122;SDS011;57489;37.404;24.920;2022-08-21T22:45:31;8.60;;;5.30;;
70122;SDS011;57489;37.404;24.920;2022-08-21T22:50:53;10.70;;;5.97;;
70122;SDS011;57489;37.404;24.920;2022-08-21T22:55:59;11.35;;;5.75;;
70122;SDS011;57489;37.404;24.920;2022-08-21T23:01:28;10.23;;;5.72;;
70122;SDS011;57489;37.404;24.920;2022-08-21T23:06:27;10.83;;;6.00;;
70122;SDS011;57489;37.404;24.920;2022-08-21T23:11:39;9.93;;;5.50;;
70122;SDS011;57489;37.404;24.920;2022-08-21T23:27:26;10.17;;;5.87;;
70122;SDS011;57489;37.404;24.920;2022-08-21T23:37:58;10.32;;;6.35;;
70122;SDS011;57489;37.404;24.920;2022-08-21T23:48:22;9.63;;;6.32;;
